Time;durP1;ratioP1;P1;durP2;ratioP2;P2;SDS_P1;SDS_P2;PMS_P1;PMS_P2;Temp;Humidity;BMP_temperature;BMP_pressure;BME280_temperature;BME280_humidity;BME280_pressure;Samples;Min_cycle;Max_cycle;Signal;HPM_P1;HPM_P2
2023/06/03 00:01:11;;;;;;;10.50;9.60;;;;;;;22.26;51.67;94798.88;6225934;27;108634;-67
2023/06/03 00:04:16;;;;;;;9.00;8.20;;;;;;;22.28;51.71;94796.66;6135152;23;110038;-60
2023/06/03 00:07:19;;;;;;;10.50;9.60;;;;;;;22.29;52.17;94798.25;6070504;28;109081;-60
2023/06/03 00:10:22;;;;;;;10.10;9.30;;;;;;;22.30;52.26;94791.81;6072756;28;110022;-60
2023/06/03 00:13:25;;;;;;;9.57;8.80;;;;;;;22.29;52.25;94782.25;6072978;28;109277;-60
2023/06/03 00:16:32;;;;;;;9.77;8.87;;;;;;;22.29;51.80;94777.69;6059595;28;109166;-60
2023/06/03 00:19:38;;;;;;;9.37;8.57;;;;;;;22.29;52.17;94780.38;6090062;28;109031;-60
2023/06/03 00:22:41;;;;;;;10.30;9.40;;;;;;;22.28;51.94;94770.81;6073628;28;110247;-60
2023/06/03 00:25:44;;;;;;;8.53;7.80;;;;;;;22.28;52.33;94770.00;6076657;28;109028;-60
2023/06/03 00:28:48;;;;;;;7.80;7.10;;;;;;;22.28;52.19;94775.34;6056723;28;109119;-60
2023/06/03 00:31:52;;;;;;;10.33;8.10;;;;;;;22.28;51.92;94772.69;6084744;28;109116;-60
2023/06/03 00:34:56;;;;;;;8.33;7.53;;;;;;;22.27;51.64;94768.44;6074883;28;110100;-60
2023/06/03 00:37:59;;;;;;;7.23;6.73;;;;;;;22.24;51.93;94766.41;6079158;28;109041;-61
2023/06/03 00:41:02;;;;;;;7.40;6.80;;;;;;;22.26;51.63;94764.22;6082205;28;108967;-61
2023/06/03 00:44:05;;;;;;;7.10;6.50;;;;;;;22.27;52.30;94771.91;6085905;28;110760;-60
2023/06/03 00:47:10;;;;;;;8.43;7.67;;;;;;;22.26;51.91;94765.00;6065433;28;109003;-60
2023/06/03 00:50:14;;;;;;;7.80;7.20;;;;;;;22.27;52.02;94760.44;6072126;28;109396;-60
2023/06/03 00:53:17;;;;;;;7.63;7.00;;;;;;;22.26;51.76;94753.56;6071683;28;109317;-60
2023/06/03 00:56:21;;;;;;;7.50;6.57;;;;;;;22.25;51.69;94760.78;6079386;28;111486;-60
2023/06/03 00:59:24;;;;;;;6.17;5.67;;;;;;;22.23;52.01;94749.63;6087823;28;110038;-60
2023/06/03 01:02:29;;;;;;;6.57;5.97;;;;;;;22.24;51.80;94753.88;6071499;28;109979;-60
2023/06/03 01:05:32;;;;;;;5.90;5.40;;;;;;;22.26;52.04;94746.34;6142560;28;109366;-60
2023/06/03 01:08:45;;;;;;;6.03;5.50;;;;;;;22.23;51.94;94746.97;6139181;28;110032;-60
2023/06/03 01:11:58;;;;;;;6.47;5.87;;;;;;;22.23;51.70;94740.88;6133481;28;110030;-60
2023/06/03 01:15:04;;;;;;;6.50;6.00;;;;;;;22.24;52.52;94743.22;6145205;28;109844;-60
2023/06/03 01:18:09;;;;;;;6.47;5.90;;;;;;;22.23;51.94;94746.19;6148468;28;110123;-60
2023/06/03 01:21:13;;;;;;;5.70;5.10;;;;;;;22.24;52.10;94753.09;6170434;28;109154;-60
2023/06/03 01:24:20;;;;;;;5.87;5.40;;;;;;;22.24;52.33;94750.41;6152749;28;110301;-60
2023/06/03 01:27:23;;;;;;;5.70;5.20;;;;;;;22.22;51.83;94749.97;6161551;28;109181;-60
2023/06/03 01:30:26;;;;;;;6.53;5.17;;;;;;;22.22;51.59;94748.06;6149301;28;109009;-60
2023/06/03 01:33:30;;;;;;;5.30;4.90;;;;;;;22.23;52.12;94746.19;6157926;28;110038;-60
2023/06/03 01:36:35;;;;;;;5.03;4.67;;;;;;;22.23;51.88;94746.19;6152270;28;109171;-61
2023/06/03 01:39:41;;;;;;;5.03;4.63;;;;;;;22.22;51.83;94753.41;6154687;28;110104;-59
2023/06/03 01:42:44;;;;;;;4.63;4.33;;;;;;;22.22;52.15;94755.28;6150871;28;109945;-60
2023/06/03 01:45:47;;;;;;;5.80;5.30;;;;;;;22.20;51.43;94760.94;6138670;28;110050;-62
2023/06/03 01:48:51;;;;;;;5.93;5.00;;;;;;;22.20;51.83;94763.59;6150224;28;109459;-61
2023/06/03 01:51:54;;;;;;;5.43;4.93;;;;;;;22.19;51.58;94756.69;6151478;28;110169;-60
2023/06/03 01:54:58;;;;;;;5.47;4.97;;;;;;;22.19;51.96;94755.91;6155567;28;109157;-60
2023/06/03 01:58:02;;;;;;;5.50;5.00;;;;;;;22.19;51.63;94763.91;6152231;28;110078;-60
2023/06/03 02:01:05;;;;;;;5.53;5.03;;;;;;;22.20;51.76;94774.25;6157985;28;109671;-60
2023/06/03 02:04:08;;;;;;;5.40;4.90;;;;;;;22.21;51.58;94772.38;6093469;28;109116;-60
2023/06/03 02:07:12;;;;;;;5.17;4.70;;;;;;;22.21;52.08;94775.03;6059470;28;109153;-60
2023/06/03 02:10:16;;;;;;;5.27;4.77;;;;;;;22.20;51.85;94774.25;6042695;28;109628;-60
2023/06/03 02:13:20;;;;;;;5.63;5.23;;;;;;;22.19;51.93;94777.25;6040094;28;109019;-60
2023/06/03 02:16:23;;;;;;;5.40;5.00;;;;;;;22.18;51.92;94765.78;6044068;28;109120;-61
2023/06/03 02:19:27;;;;;;;5.20;4.80;;;;;;;22.16;51.58;94762.63;6054932;28;109123;-61
2023/06/03 02:22:30;;;;;;;5.47;4.57;;;;;;;22.19;52.19;94771.91;6032654;28;109310;-60
2023/06/03 02:25:35;;;;;;;5.77;5.23;;;;;;;22.19;52.03;94772.69;6057262;28;109038;-60
2023/06/03 02:28:38;;;;;;;4.60;4.20;;;;;;;22.15;51.87;94777.06;6049418;28;110015;-60
2023/06/03 02:31:43;;;;;;;5.50;5.00;;;;;;;22.15;51.67;94776.28;6046614;28;109009;-60
2023/06/03 02:34:46;;;;;;;5.20;4.80;;;;;;;22.14;51.49;94780.03;6065552;28;109919;-60
2023/06/03 02:37:50;;;;;;;5.03;4.53;;;;;;;22.13;51.53;94783.78;6061606;28;109272;-60
2023/06/03 02:40:55;;;;;;;5.20;4.70;;;;;;;22.14;51.92;94791.47;6063624;28;110662;-60
2023/06/03 02:43:58;;;;;;;4.93;4.53;;;;;;;22.13;51.79;94797.13;6056388;28;109224;-63
2023/06/03 02:47:01;;;;;;;5.10;4.50;;;;;;;22.10;51.42;94796.66;6050718;28;109412;-60
2023/06/03 02:50:05;;;;;;;6.67;4.70;;;;;;;22.10;51.67;94794.00;6055993;28;108987;-61
2023/06/03 02:53:09;;;;;;;4.90;4.40;;;;;;;22.11;52.09;94800.88;6050598;28;109233;-60
2023/06/03 02:56:14;;;;;;;5.33;4.90;;;;;;;22.12;51.54;94804.34;6040963;28;109011;-60
2023/06/03 02:59:17;;;;;;;5.00;4.60;;;;;;;22.10;51.80;94804.66;6049678;28;109007;-60
2023/06/03 03:02:20;;;;;;;5.60;5.20;;;;;;;22.11;51.86;94808.09;6058324;28;109290;-59
2023/06/03 03:05:24;;;;;;;6.20;3.73;;;;;;;22.11;51.41;94808.88;6057565;28;110266;-60
2023/06/03 03:08:28;;;;;;;12.87;5.27;;;;;;;22.09;51.52;94813.75;6051266;28;109040;-60
2023/06/03 03:11:32;;;;;;;5.60;5.10;;;;;;;22.06;52.58;94811.69;6065202;28;110296;-60
2023/06/03 03:14:35;;;;;;;5.47;4.97;;;;;;;22.07;51.69;94815.16;6058592;28;109314;-60
2023/06/03 03:17:38;;;;;;;6.50;4.90;;;;;;;22.08;51.74;94817.50;6055688;28;109664;-60
2023/06/03 03:20:42;;;;;;;10.10;4.87;;;;;;;22.10;52.37;94822.50;6043702;28;109341;-59
2023/06/03 03:23:45;;;;;;;6.10;4.90;;;;;;;22.08;51.74;94822.84;6047679;28;110032;-59
2023/06/03 03:26:50;;;;;;;9.90;4.97;;;;;;;22.10;51.84;94820.63;6065191;28;109285;-60
2023/06/03 03:29:55;;;;;;;10.30;6.63;;;;;;;22.06;52.04;94827.69;6054710;28;109583;-61
2023/06/03 03:32:59;;;;;;;10.03;5.70;;;;;;;22.10;51.97;94831.28;6045197;28;110103;-61
2023/06/03 03:36:08;;;;;;;7.50;6.73;;;;;;;22.14;52.14;94828.00;6051433;28;109055;-61
2023/06/03 03:39:11;;;;;;;20.40;13.73;;;;;;;22.15;52.49;94834.91;6061359;28;109316;-61
2023/06/03 03:42:16;;;;;;;184.23;170.17;;;;;;;22.15;52.64;94843.69;6056612;28;109262;-62
2023/06/03 03:45:21;;;;;;;37.97;34.83;;;;;;;22.13;52.88;94840.53;6063812;28;109370;-64
2023/06/03 03:48:30;;;;;;;46.43;42.37;;;;;;;22.14;52.59;94846.66;6059438;28;109333;-61
2023/06/03 03:51:35;;;;;;;51.80;47.60;;;;;;;22.13;53.13;94847.75;6052307;28;109432;-62
2023/06/03 03:54:39;;;;;;;89.80;82.63;;;;;;;22.17;53.81;94848.69;6056906;28;109535;-61
2023/06/03 03:57:44;;;;;;;70.80;64.60;;;;;;;22.17;53.42;94843.38;6058010;28;109018;-61
2023/06/03 04:00:47;;;;;;;51.17;46.97;;;;;;;22.17;53.99;94846.03;6053286;28;110145;-62
2023/06/03 04:03:51;;;;;;;35.90;32.77;;;;;;;22.17;54.27;94852.16;6041347;28;110424;-61
2023/06/03 04:06:55;;;;;;;39.77;36.17;;;;;;;22.19;54.13;94842.00;6048641;28;108958;-61
2023/06/03 04:09:58;;;;;;;27.57;25.43;;;;;;;22.19;54.38;94844.66;6063235;28;109140;-62
2023/06/03 04:13:06;;;;;;;22.60;20.67;;;;;;;22.22;54.09;94851.25;6051256;28;109811;-61
2023/06/03 04:16:11;;;;;;;24.13;22.13;;;;;;;22.20;54.68;94856.09;6050258;28;109128;-62
2023/06/03 04:19:17;;;;;;;19.87;17.97;;;;;;;22.18;54.29;94839.59;6054509;28;109218;-61
2023/06/03 04:22:22;;;;;;;17.80;15.90;;;;;;;22.19;53.55;94857.19;6055827;28;109325;-60
2023/06/03 04:25:25;;;;;;;18.60;17.00;;;;;;;22.18;53.96;94856.41;6036757;28;109012;-61
2023/06/03 04:28:30;;;;;;;13.67;12.50;;;;;;;22.18;53.86;94860.94;6059368;28;109235;-61
2023/06/03 04:31:33;;;;;;;11.30;10.23;;;;;;;22.13;52.77;94850.41;6049900;28;109174;-61
2023/06/03 04:34:48;;;;;;;12.83;10.03;;;;;;;22.06;52.95;94850.88;6061746;28;109040;-62
2023/06/03 04:37:51;;;;;;;16.30;10.57;;;;;;;22.11;53.26;94854.19;6031979;28;110813;-61
2023/06/03 04:40:55;;;;;;;9.93;7.80;;;;;;;22.08;52.84;94851.34;6041093;28;108992;-61
2023/06/03 04:44:01;;;;;;;12.43;11.27;;;;;;;22.11;52.99;94858.72;6055307;28;110099;-61
2023/06/03 04:47:04;;;;;;;13.23;9.80;;;;;;;22.11;52.82;94850.72;6057867;28;109049;-59
2023/06/03 04:50:08;;;;;;;15.10;7.80;;;;;;;22.08;52.93;94844.16;6072638;28;110186;-59
2023/06/03 04:53:12;;;;;;;18.60;7.60;;;;;;;22.11;52.85;94864.06;6064033;28;109320;-59
2023/06/03 04:56:16;;;;;;;18.13;8.20;;;;;;;22.13;54.21;94861.88;6052650;28;109999;-59
2023/06/03 04:59:21;;;;;;;17.60;7.80;;;;;;;22.16;56.05;94858.56;6052559;28;110047;-60
2023/06/03 05:02:29;;;;;;;12.77;7.43;;;;;;;22.15;55.71;94857.00;6044202;28;110302;-59
2023/06/03 05:05:33;;;;;;;12.40;8.27;;;;;;;22.17;55.80;94859.34;6057400;28;110202;-59
2023/06/03 05:08:36;;;;;;;8.67;6.83;;;;;;;22.13;55.70;94859.19;6085544;28;110206;-61
2023/06/03 05:11:39;;;;;;;9.10;7.80;;;;;;;22.17;55.00;94865.47;6050282;28;109103;-59
2023/06/03 05:14:43;;;;;;;35.93;9.90;;;;;;;22.09;54.92;94871.59;6055421;28;109989;-60
2023/06/03 05:17:48;;;;;;;11.37;8.03;;;;;;;22.11;55.55;94872.84;6050180;28;109983;-60
2023/06/03 05:20:51;;;;;;;16.10;8.70;;;;;;;22.10;53.37;94876.59;6055668;28;109299;-59
2023/06/03 05:23:55;;;;;;;9.70;7.80;;;;;;;22.10;52.80;94875.81;6043138;28;109421;-60
2023/06/03 05:26:58;;;;;;;12.13;7.07;;;;;;;22.05;53.80;94876.75;6060480;28;109084;-62
2023/06/03 05:30:02;;;;;;;7.47;6.77;;;;;;;22.07;54.09;94887.88;6050900;28;109164;-60
2023/06/03 05:33:06;;;;;;;12.27;7.83;;;;;;;22.10;53.82;94887.25;6048999;28;108962;-66
2023/06/03 05:36:10;;;;;;;11.93;6.83;;;;;;;22.05;53.12;94886.63;6050387;28;110103;-59
2023/06/03 05:39:13;;;;;;;18.60;7.53;;;;;;;22.10;54.62;94889.91;6050240;28;109930;-61
2023/06/03 05:42:16;;;;;;;15.40;8.60;;;;;;;22.03;53.50;94886.94;6049487;28;109190;-59
2023/06/03 05:45:21;;;;;;;19.30;8.40;;;;;;;22.07;53.27;94892.44;6036131;28;109028;-59
2023/06/03 05:48:24;;;;;;;10.23;7.50;;;;;;;21.96;53.30;94889.25;6066525;28;110668;-60
2023/06/03 05:51:27;;;;;;;12.23;7.17;;;;;;;22.05;53.93;94891.94;6060400;28;109991;-59
2023/06/03 05:54:30;;;;;;;7.57;6.70;;;;;;;22.06;52.96;94891.66;6063788;28;108969;-59
2023/06/03 05:57:34;;;;;;;8.70;6.53;;;;;;;22.02;52.96;94890.69;6060498;28;110205;-59
2023/06/03 06:00:39;;;;;;;15.23;7.87;;;;;;;21.93;53.54;94887.19;6069515;28;109050;-60
2023/06/03 06:03:42;;;;;;;11.23;9.03;;;;;;;21.83;54.29;94874.16;6047020;28;109093;-60
2023/06/03 06:06:45;;;;;;;15.73;8.00;;;;;;;21.99;53.77;94879.84;6048761;28;109242;-62
2023/06/03 06:09:48;;;;;;;10.03;8.27;;;;;;;22.00;53.62;94884.09;6044882;28;108984;-62
2023/06/03 06:12:52;;;;;;;10.67;7.20;;;;;;;21.97;53.87;94885.50;6050960;28;108967;-60
2023/06/03 06:16:01;;;;;;;18.23;7.93;;;;;;;21.93;53.36;94887.19;6040368;28;109031;-60
2023/06/03 06:19:04;;;;;;;13.43;7.67;;;;;;;21.95;53.42;94877.03;6044101;28;110207;-60
2023/06/03 06:22:07;;;;;;;10.57;7.73;;;;;;;21.97;53.35;94882.81;6048003;28;110286;-59
2023/06/03 06:25:11;;;;;;;8.13;6.50;;;;;;;21.62;53.66;94886.41;6052177;28;109002;-59
2023/06/03 06:28:14;;;;;;;7.20;6.57;;;;;;;21.57;53.70;94875.91;6057204;28;111594;-59
2023/06/03 06:31:19;;;;;;;12.80;7.27;;;;;;;21.76;54.25;94876.44;6029603;28;109015;-61
2023/06/03 06:34:22;;;;;;;6.73;6.17;;;;;;;21.67;53.40;94871.06;6048107;28;109976;-62
2023/06/03 06:37:25;;;;;;;8.53;5.83;;;;;;;21.46;53.64;94873.47;6041981;28;109847;-62
2023/06/03 06:40:33;;;;;;;8.47;6.07;;;;;;;21.53;54.37;94878.38;6050874;28;109217;-61
2023/06/03 06:43:36;;;;;;;13.63;6.70;;;;;;;21.54;54.10;94881.84;6053485;28;109573;-59
2023/06/03 06:46:41;;;;;;;8.47;7.07;;;;;;;21.50;54.51;94873.66;6050203;28;109277;-62
2023/06/03 06:49:44;;;;;;;8.90;6.27;;;;;;;21.40;54.56;94876.59;6064505;28;110036;-61
2023/06/03 06:52:47;;;;;;;29.87;10.07;;;;;;;21.55;54.93;94880.75;6048468;28;109163;-60
2023/06/03 06:55:52;;;;;;;12.77;7.63;;;;;;;21.70;54.27;94873.16;6042398;28;109456;-59
2023/06/03 06:58:55;;;;;;;20.00;8.57;;;;;;;21.94;54.18;94888.78;6061994;28;110042;-59
2023/06/03 07:02:00;;;;;;;10.90;8.67;;;;;;;21.79;54.76;94881.16;6046522;28;108798;-60
2023/06/03 07:05:03;;;;;;;8.73;7.83;;;;;;;21.74;54.48;94889.28;6036706;28;109883;-60
2023/06/03 07:08:07;;;;;;;9.60;7.80;;;;;;;21.79;53.88;94887.28;6053966;28;110032;-59
2023/06/03 07:11:10;;;;;;;13.90;8.20;;;;;;;21.82;55.12;94888.56;6042980;28;108990;-60
2023/06/03 07:14:13;;;;;;;15.00;8.10;;;;;;;21.98;54.40;94894.25;6040396;28;109017;-60
2023/06/03 07:17:18;;;;;;;10.07;7.13;;;;;;;21.97;53.81;94893.47;6039384;28;109344;-59
2023/06/03 07:20:23;;;;;;;12.20;5.97;;;;;;;21.98;53.18;94895.03;6085996;28;109289;-60
2023/06/03 07:23:27;;;;;;;12.60;6.83;;;;;;;22.00;53.42;94900.06;6053701;28;109818;-60
2023/06/03 07:26:31;;;;;;;10.00;7.27;;;;;;;22.04;53.93;94901.81;6048823;28;109098;-60
2023/06/03 07:29:38;;;;;;;12.17;7.20;;;;;;;22.07;54.00;94900.41;6060018;28;110016;-60
2023/06/03 07:32:44;;;;;;;11.83;7.13;;;;;;;22.11;54.04;94904.03;6063822;28;109518;-60
2023/06/03 07:35:52;;;;;;;14.63;7.23;;;;;;;22.16;53.93;94908.44;6041851;28;109118;-59
2023/06/03 07:39:00;;;;;;;16.30;7.53;;;;;;;22.19;54.39;94911.28;6032640;28;109104;-59
2023/06/03 07:42:06;;;;;;;12.23;7.40;;;;;;;22.20;54.68;94915.53;6042373;28;110044;-60
2023/06/03 07:45:10;;;;;;;19.23;7.20;;;;;;;22.13;54.23;94917.03;6043340;28;109786;-60
2023/06/03 07:48:15;;;;;;;13.20;7.27;;;;;;;22.19;54.15;94919.28;6054568;28;108933;-60
2023/06/03 07:51:19;;;;;;;16.70;9.00;;;;;;;22.31;54.28;94924.00;6037231;28;109063;-60
2023/06/03 07:54:22;;;;;;;16.97;10.60;;;;;;;22.32;54.56;94921.03;6051483;28;109925;-60
2023/06/03 07:57:26;;;;;;;23.83;12.60;;;;;;;22.34;54.33;94929.50;6041646;28;110194;-60
2023/06/03 08:00:29;;;;;;;27.43;14.67;;;;;;;22.33;54.67;94929.81;6036830;28;110085;-61
2023/06/03 08:03:35;;;;;;;20.20;14.20;;;;;;;22.33;54.10;94937.81;6040577;28;109965;-61
2023/06/03 08:06:39;;;;;;;18.73;13.00;;;;;;;22.27;54.37;94941.72;6055721;28;110314;-61
2023/06/03 08:09:43;;;;;;;13.27;11.97;;;;;;;22.20;54.07;94936.84;6041324;28;110215;-59
2023/06/03 08:12:46;;;;;;;15.33;10.33;;;;;;;22.18;53.85;94932.88;6036203;28;109180;-59
2023/06/03 08:15:49;;;;;;;11.83;8.57;;;;;;;22.14;54.16;94934.59;6043546;28;109265;-59
2023/06/03 08:18:55;;;;;;;16.03;10.10;;;;;;;22.19;54.52;94937.16;6057540;28;109351;-60
2023/06/03 08:21:58;;;;;;;70.10;14.20;;;;;;;22.24;54.97;94935.13;6088119;28;109524;-60
2023/06/03 08:25:01;;;;;;;56.87;14.07;;;;;;;22.31;54.83;94942.66;6033226;28;109265;-60
2023/06/03 08:28:04;;;;;;;50.60;12.53;;;;;;;22.36;54.95;94934.53;6040160;28;108953;-59
2023/06/03 08:31:08;;;;;;;30.07;10.37;;;;;;;22.33;55.33;94927.13;6044789;28;109057;-61
2023/06/03 08:34:12;;;;;;;21.07;10.17;;;;;;;22.44;55.05;94933.75;6059849;28;108993;-60
2023/06/03 08:37:16;;;;;;;31.73;11.60;;;;;;;22.53;55.02;94944.47;6072511;28;110276;-59
2023/06/03 08:40:21;;;;;;;23.73;11.30;;;;;;;22.59;55.40;94935.25;6049564;28;110080;-59
2023/06/03 08:43:34;;;;;;;27.17;11.00;;;;;;;22.64;54.91;94933.19;6060487;28;109014;-59
2023/06/03 08:46:47;;;;;;;27.97;11.50;;;;;;;22.69;55.52;94938.41;6043510;28;108966;-61
2023/06/03 08:50:00;;;;;;;26.40;13.20;;;;;;;22.78;55.17;94932.28;6057958;28;108983;-60
2023/06/03 08:53:08;;;;;;;21.97;11.40;;;;;;;22.83;56.10;94930.25;6068895;28;108994;-60
2023/06/03 08:56:13;;;;;;;16.60;11.07;;;;;;;22.86;56.29;94929.63;6077387;28;109196;-62
2023/06/03 08:59:20;;;;;;;23.93;11.80;;;;;;;22.90;55.96;94932.47;6066790;28;109645;-60
2023/06/03 09:02:24;;;;;;;20.17;10.83;;;;;;;22.93;55.85;94929.94;6065309;28;108979;-60
2023/06/03 09:05:29;;;;;;;20.73;11.67;;;;;;;22.97;55.46;94924.75;6069998;28;109101;-60
2023/06/03 09:08:35;;;;;;;23.90;11.77;;;;;;;22.98;55.20;94926.31;6061389;28;108994;-64
2023/06/03 09:11:39;;;;;;;18.77;12.00;;;;;;;23.01;55.36;94925.69;6063785;28;109092;-60
2023/06/03 09:14:44;;;;;;;19.23;11.43;;;;;;;23.05;55.50;94926.66;6064422;28;109275;-62
2023/06/03 09:17:48;;;;;;;19.90;11.93;;;;;;;23.07;55.56;94923.66;6059316;28;109930;-61
2023/06/03 09:20:52;;;;;;;25.60;11.87;;;;;;;23.09;55.20;94919.59;6057792;28;110107;-60
2023/06/03 09:23:55;;;;;;;22.67;13.27;;;;;;;23.06;55.35;94911.44;6060171;28;109936;-60
2023/06/03 09:26:59;;;;;;;23.00;12.50;;;;;;;23.09;55.08;94916.91;6049012;28;110562;-60
2023/06/03 09:30:04;;;;;;;20.30;12.73;;;;;;;23.09;54.88;94913.47;6071333;28;109703;-61
2023/06/03 09:33:07;;;;;;;18.03;13.07;;;;;;;23.09;55.31;94905.44;6051842;28;109986;-61
2023/06/03 09:36:13;;;;;;;18.37;15.10;;;;;;;23.09;54.90;94910.78;6059118;28;109017;-61
2023/06/03 09:39:33;;;;;;;17.07;15.27;;;;;;;22.95;55.59;94879.72;6063772;28;108862;-60
2023/06/03 09:42:46;;;;;;;25.33;14.13;;;;;;;23.11;55.50;94906.69;6046296;28;108950;-63
2023/06/03 09:45:49;;;;;;;17.37;15.33;;;;;;;23.10;55.54;94907.81;6060693;28;109668;-61
2023/06/03 09:48:53;;;;;;;20.37;15.60;;;;;;;23.11;55.53;94904.03;6071116;28;109029;-61
2023/06/03 09:51:57;;;;;;;17.00;14.93;;;;;;;23.12;55.77;94902.94;6064777;28;109235;-60
2023/06/03 09:55:02;;;;;;;16.43;14.70;;;;;;;23.10;55.88;94902.47;6057679;28;109747;-60
2023/06/03 09:58:08;;;;;;;18.57;14.60;;;;;;;23.07;55.69;94895.09;6057684;28;109236;-60
2023/06/03 10:01:13;;;;;;;21.57;13.90;;;;;;;23.09;55.32;94903.56;6059276;28;108548;-60
2023/06/03 10:04:20;;;;;;;17.20;13.60;;;;;;;23.08;55.06;94904.66;6061342;28;109469;-60
2023/06/03 10:07:25;;;;;;;13.97;12.70;;;;;;;23.08;55.17;94894.00;6055179;28;109908;-60
2023/06/03 10:10:28;;;;;;;14.63;12.97;;;;;;;23.06;54.80;94890.06;6062259;28;109148;-60
2023/06/03 10:13:31;;;;;;;16.10;13.93;;;;;;;23.06;54.72;94890.06;6062528;28;109299;-60
2023/06/03 10:16:34;;;;;;;14.53;13.03;;;;;;;23.04;55.14;94890.38;6060604;28;111213;-61
2023/06/03 10:19:39;;;;;;;12.53;11.20;;;;;;;23.05;55.00;94883.94;6055925;28;109897;-60
2023/06/03 10:22:44;;;;;;;13.63;12.13;;;;;;;23.06;54.93;94880.19;6083414;28;109120;-60
2023/06/03 10:25:52;;;;;;;13.03;11.70;;;;;;;23.06;54.98;94887.41;6066713;28;109199;-62
2023/06/03 10:28:57;;;;;;;13.50;12.20;;;;;;;23.05;54.88;94894.63;6051544;28;109502;-60
2023/06/03 10:32:02;;;;;;;13.80;12.43;;;;;;;23.05;54.93;94894.63;6056139;28;108970;-60
2023/06/03 10:35:06;;;;;;;8.97;8.17;;;;;;;23.05;50.89;94893.84;6056540;28;109065;-60
2023/06/03 10:38:11;;;;;;;5.83;5.43;;;;;;;23.02;48.79;94892.59;6070091;28;108875;-60
2023/06/03 10:41:14;;;;;;;10.00;6.50;;;;;;;23.02;49.24;94889.94;6055569;28;109036;-61
2023/06/03 10:44:19;;;;;;;13.27;7.30;;;;;;;23.08;50.09;94886.00;6058841;28;110019;-60
2023/06/03 10:47:26;;;;;;;11.83;6.90;;;;;;;23.09;50.46;94884.88;6051116;28;109780;-60
2023/06/03 10:50:41;;;;;;;15.90;7.33;;;;;;;23.14;50.87;94882.03;6075237;28;109013;-60
2023/06/03 10:54:02;;;;;;;11.27;7.07;;;;;;;23.17;51.53;94880.63;6053190;28;109119;-60
2023/06/03 10:57:08;;;;;;;12.30;7.83;;;;;;;23.18;51.77;94874.97;6063130;28;109093;-60
2023/06/03 11:00:12;;;;;;;14.00;8.00;;;;;;;23.18;52.15;94874.19;6070763;28;109359;-60
2023/06/03 11:03:16;;;;;;;16.07;9.13;;;;;;;23.22;52.27;94872.47;6056501;28;110080;-60
2023/06/03 11:06:46;;;;;;;16.00;9.47;;;;;;;23.21;52.94;94874.34;6059086;28;109073;-60
2023/06/03 11:09:51;;;;;;;14.40;9.33;;;;;;;23.21;52.82;94877.03;6070185;28;109043;-60
2023/06/03 11:12:54;;;;;;;14.00;10.00;;;;;;;23.19;53.31;94868.56;6041842;28;109305;-59
2023/06/03 11:16:04;;;;;;;14.40;9.40;;;;;;;23.21;53.17;94869.03;6035085;28;108888;-60
2023/06/03 11:19:28;;;;;;;12.73;10.17;;;;;;;23.22;53.51;94877.81;6068611;28;110085;-60
2023/06/03 11:22:44;;;;;;;10.80;9.00;;;;;;;23.24;53.35;94879.06;6063059;28;108998;-60
2023/06/03 11:25:49;;;;;;;9.90;8.90;;;;;;;23.24;52.97;94876.38;6040944;28;109814;-61
2023/06/03 11:28:52;;;;;;;9.80;8.80;;;;;;;23.22;53.53;94865.25;6046149;28;109009;-60
2023/06/03 11:32:12;;;;;;;10.67;9.67;;;;;;;23.24;53.67;94867.59;6041395;28;109297;-60
2023/06/03 11:35:29;;;;;;;10.63;8.50;;;;;;;23.21;53.54;94862.91;6041778;28;110031;-60
2023/06/03 11:39:00;;;;;;;8.37;7.57;;;;;;;23.20;52.73;94864.78;6031040;28;109156;-60
2023/06/03 11:42:08;;;;;;;8.63;7.37;;;;;;;23.15;51.88;94867.59;6041453;28;110266;-60
2023/06/03 11:45:29;;;;;;;6.60;5.90;;;;;;;23.19;51.42;94868.56;6041433;28;110110;-60
2023/06/03 11:48:37;;;;;;;7.43;6.23;;;;;;;23.17;51.25;94860.06;6051119;28;109756;-61
2023/06/03 11:51:40;;;;;;;6.20;5.63;;;;;;;23.17;50.68;94857.38;6041455;28;109421;-61
2023/06/03 11:54:47;;;;;;;5.80;5.30;;;;;;;23.18;50.49;94866.97;6046839;28;109212;-61
2023/06/03 11:57:54;;;;;;;5.80;5.30;;;;;;;23.18;50.43;94861.63;6064938;28;108901;-60
2023/06/03 12:01:18;;;;;;;5.70;5.30;;;;;;;23.18;49.78;94866.16;6055143;28;110829;-60
2023/06/03 12:04:22;;;;;;;10.17;6.13;;;;;;;23.21;49.26;94865.56;6060693;28;109212;-60
2023/06/03 12:07:25;;;;;;;5.63;5.03;;;;;;;23.18;48.71;94866.16;6060959;28;109033;-60
2023/06/03 12:10:29;;;;;;;7.93;4.30;;;;;;;23.15;47.74;94867.59;6051311;28;111192;-60
2023/06/03 12:13:41;;;;;;;4.60;4.20;;;;;;;23.16;47.82;94863.81;6035332;28;110837;-60
2023/06/03 12:16:45;;;;;;;6.40;4.90;;;;;;;23.17;47.83;94869.94;6061662;28;109296;-60
2023/06/03 12:19:49;;;;;;;4.90;4.50;;;;;;;23.13;47.24;94872.47;6061549;28;109788;-60
2023/06/03 12:22:59;;;;;;;5.73;5.23;;;;;;;23.10;47.71;94870.44;6053424;28;109104;-60
2023/06/03 12:26:02;;;;;;;5.77;5.17;;;;;;;23.15;48.86;94869.47;6069756;28;109440;-60
2023/06/03 12:29:09;;;;;;;5.23;4.83;;;;;;;23.14;49.18;94860.69;6062945;28;109976;-60
2023/06/03 12:32:12;;;;;;;6.13;5.53;;;;;;;23.12;49.91;94860.22;6063374;28;109047;-60
2023/06/03 12:35:15;;;;;;;6.50;5.90;;;;;;;23.17;50.23;94864.59;6039879;28;109376;-60
2023/06/03 12:38:19;;;;;;;6.47;5.97;;;;;;;23.15;50.85;94864.94;6064250;28;110031;-61
2023/06/03 12:41:22;;;;;;;6.60;6.10;;;;;;;23.15;50.86;94862.25;6064173;28;110000;-60
2023/06/03 12:44:27;;;;;;;6.17;5.57;;;;;;;23.15;51.04;94862.25;6059014;28;109043;-61
2023/06/03 12:47:30;;;;;;;6.33;5.73;;;;;;;23.14;50.78;94871.38;6047137;28;109004;-60
2023/06/03 12:50:35;;;;;;;6.43;5.93;;;;;;;23.13;50.68;94867.13;6079169;28;109122;-60
2023/06/03 12:53:38;;;;;;;6.50;5.90;;;;;;;23.11;51.32;94856.00;6056871;28;109014;-61
2023/06/03 12:56:43;;;;;;;6.20;5.70;;;;;;;23.13;50.96;94869.00;6050118;28;109154;-61
2023/06/03 13:00:08;;;;;;;6.20;5.70;;;;;;;23.10;50.84;94875.78;6051942;28;110121;-61
2023/06/03 13:03:12;;;;;;;6.10;5.60;;;;;;;23.14;50.83;94892.72;6049452;28;109063;-60
2023/06/03 13:06:16;;;;;;;6.27;5.77;;;;;;;23.15;51.42;94882.81;6040118;28;109026;-61
2023/06/03 13:09:19;;;;;;;5.83;5.40;;;;;;;23.11;51.07;94904.03;6030087;28;109496;-61
2023/06/03 13:12:23;;;;;;;14.73;6.13;;;;;;;23.07;51.14;94905.00;6072584;28;108925;-61
2023/06/03 13:15:28;;;;;;;5.67;5.27;;;;;;;23.02;50.84;94911.28;6060249;28;110133;-60
2023/06/03 13:18:31;;;;;;;9.90;5.83;;;;;;;23.01;50.69;94931.03;6053402;28;109137;-61
2023/06/03 13:21:34;;;;;;;7.73;5.63;;;;;;;22.97;50.82;94943.44;6061460;28;109042;-60
2023/06/03 13:24:38;;;;;;;5.87;5.30;;;;;;;22.57;49.47;94946.22;6085421;28;109187;-60
2023/06/03 13:27:41;;;;;;;6.30;5.80;;;;;;;22.65;49.41;94945.44;6072587;28;109066;-60
2023/06/03 13:30:48;;;;;;;8.83;6.13;;;;;;;22.70;49.52;94950.66;6048872;28;109355;-60
2023/06/03 13:33:52;;;;;;;7.53;5.80;;;;;;;22.79;50.28;94944.53;6065883;28;110235;-60
2023/06/03 13:36:55;;;;;;;10.90;5.60;;;;;;;22.84;50.30;94941.69;6064521;28;109957;-60
2023/06/03 13:39:59;;;;;;;13.17;5.80;;;;;;;22.88;50.29;94951.44;6065334;28;110345;-60
2023/06/03 13:43:02;;;;;;;11.33;6.07;;;;;;;22.89;49.83;94955.69;6052788;28;109165;-59
2023/06/03 13:46:08;;;;;;;10.00;6.63;;;;;;;22.83;50.17;94956.13;6072146;28;109077;-60
2023/06/03 13:49:11;;;;;;;16.83;7.00;;;;;;;22.81;50.33;94953.78;6068630;28;109286;-59
2023/06/03 13:52:14;;;;;;;12.67;6.83;;;;;;;22.81;50.40;94951.13;6058930;28;109058;-59
2023/06/03 13:55:18;;;;;;;7.50;5.77;;;;;;;22.83;50.63;94935.56;6055527;28;109772;-59
2023/06/03 13:58:21;;;;;;;7.93;4.77;;;;;;;22.80;50.75;94928.19;6065305;28;109044;-59
2023/06/03 14:01:27;;;;;;;6.70;5.23;;;;;;;22.78;50.72;94940.28;6069956;28;109391;-59
2023/06/03 14:04:30;;;;;;;7.80;5.23;;;;;;;22.86;51.13;94939.53;6051069;28;110982;-65
2023/06/03 14:07:33;;;;;;;9.60;4.23;;;;;;;22.89;51.14;94939.69;6077211;28;109457;-59
2023/06/03 14:10:37;;;;;;;6.40;3.87;;;;;;;22.83;50.25;94948.91;6060258;28;109071;-61
2023/06/03 14:13:40;;;;;;;4.37;4.07;;;;;;;22.69;50.22;94940.28;6062412;28;109056;-60